PWSweather.com
Personal Weather Stations
Station Observations
133525
French Quarters West Seneca , West Seneca, NY 14224

French Quarters West Seneca West Seneca, NY 14224

Lat: 42.850058, Lon: -78.799754

Elevation: 603

Station Type: Davis Vantage Vue pro2

http://westsenecaweather.com/

High Low Average
Temperature 82.0°F27.8°C 54.8°F12.7°C 70.0°F21.1°C
Dew Point 61.3°F16.3°C 51.6°F10.9°C 56.0°F13.3°C
Winds 5.8 mph 9.3 kmh Calm Calm 2.0 mph SW3.2 kmh SW
Wind Gusts 11.5 mph18.5 kmh -- 3.0 mph4.8 kmh
Humidity 90% 40% 64%
Pressure 30.08 in1018.6 mb 30.00 in1015.9 mb -
Precipitation 0.00 in0.0 mm - -
Hour Temp Dew Point Humidity Winds Wind Gusts Pressure Precip Precip Rate Daily Precip Total
12:00 AM 59.3°F15.2°C 53.5°F11.9°C 81% Calm Calm -- 30.03 in1016.9 mb - 0.00 in0.0 mm 0.00 in0.0 mm
12:10 AM 59.0°F15.0°C 53.2°F11.8°C 81% Calm Calm -- 30.03 in1016.9 mb - 0.00 in0.0 mm 0.00 in0.0 mm
12:20 AM 58.9°F14.9°C 53.1°F11.7°C 81% Calm Calm -- 30.03 in1016.9 mb - 0.00 in0.0 mm 0.00 in0.0 mm
12:30 AM 59.3°F15.2°C 53.1°F11.7°C 80% Calm Calm -- 30.03 in1016.9 mb - 0.00 in0.0 mm 0.00 in0.0 mm
12:40 AM 59.2°F15.1°C 53.0°F11.7°C 80% Calm Calm -- 30.03 in1016.9 mb - 0.00 in0.0 mm 0.00 in0.0 mm
12:50 AM 58.8°F14.9°C 53.0°F11.7°C 81% Calm Calm -- 30.03 in1016.9 mb - 0.00 in0.0 mm 0.00 in0.0 mm
01:00 AM 58.7°F14.8°C 53.2°F11.8°C 82% Calm Calm -- 30.03 in1016.9 mb - 0.00 in0.0 mm 0.00 in0.0 mm
01:10 AM 58.5°F14.7°C 53.0°F11.7°C 82% Calm Calm -- 30.04 in1017.3 mb - 0.00 in0.0 mm 0.00 in0.0 mm
01:20 AM 58.3°F14.6°C 53.1°F11.7°C 83% Calm Calm -- 30.04 in1017.3 mb - 0.00 in0.0 mm 0.00 in0.0 mm
01:30 AM 58.0°F14.4°C 52.9°F11.6°C 83% Calm Calm -- 30.04 in1017.3 mb - 0.00 in0.0 mm 0.00 in0.0 mm
01:40 AM 57.8°F14.3°C 53.0°F11.7°C 84% Calm Calm -- 30.04 in1017.3 mb - 0.00 in0.0 mm 0.00 in0.0 mm
01:50 AM 57.7°F14.3°C 52.9°F11.6°C 84% Calm Calm -- 30.03 in1016.9 mb - 0.00 in0.0 mm 0.00 in0.0 mm
02:00 AM 57.8°F14.3°C 53.0°F11.7°C 84% Calm Calm -- 30.03 in1016.9 mb - 0.00 in0.0 mm 0.00 in0.0 mm
02:10 AM 57.7°F14.3°C 52.6°F11.4°C 83% Calm Calm -- 30.04 in1017.3 mb - 0.00 in0.0 mm 0.00 in0.0 mm
02:20 AM 57.5°F14.2°C 52.4°F11.3°C 83% Calm Calm -- 30.03 in1016.9 mb - 0.00 in0.0 mm 0.00 in0.0 mm
02:30 AM 57.5°F14.2°C 52.7°F11.5°C 84% Calm Calm -- 30.03 in1016.9 mb - 0.00 in0.0 mm 0.00 in0.0 mm
02:40 AM 57.5°F14.2°C 52.4°F11.3°C 83% Calm Calm -- 30.03 in1016.9 mb - 0.00 in0.0 mm 0.00 in0.0 mm
02:50 AM 57.6°F14.2°C 52.1°F11.2°C 82% Calm Calm -- 30.03 in1016.9 mb - 0.00 in0.0 mm 0.00 in0.0 mm
03:00 AM 57.9°F14.4°C 52.1°F11.2°C 81% Calm Calm -- 30.03 in1016.9 mb - 0.00 in0.0 mm 0.00 in0.0 mm
03:10 AM 58.1°F14.5°C 52.0°F11.1°C 80% Calm Calm -- 30.03 in1016.9 mb - 0.00 in0.0 mm 0.00 in0.0 mm
03:20 AM 58.2°F14.6°C 52.1°F11.2°C 80% Calm Calm -- 30.03 in1016.9 mb - 0.00 in0.0 mm 0.00 in0.0 mm
03:30 AM 58.3°F14.6°C 52.2°F11.2°C 80% Calm Calm -- 30.03 in1016.9 mb - 0.00 in0.0 mm 0.00 in0.0 mm
03:40 AM 58.3°F14.6°C 52.2°F11.2°C 80% Calm Calm -- 30.03 in1016.9 mb - 0.00 in0.0 mm 0.00 in0.0 mm
03:50 AM 58.2°F14.6°C 52.1°F11.2°C 80% Calm Calm -- 30.03 in1016.9 mb - 0.00 in0.0 mm 0.00 in0.0 mm
04:00 AM 58.0°F14.4°C 51.9°F11.1°C 80% Calm Calm -- 30.03 in1016.9 mb - 0.00 in0.0 mm 0.00 in0.0 mm
04:10 AM 57.8°F14.3°C 52.0°F11.1°C 81% Calm Calm -- 30.03 in1016.9 mb - 0.00 in0.0 mm 0.00 in0.0 mm
04:20 AM 57.6°F14.2°C 52.1°F11.2°C 82% Calm Calm -- 30.03 in1016.9 mb - 0.00 in0.0 mm 0.00 in0.0 mm
04:30 AM 57.4°F14.1°C 52.3°F11.3°C 83% Calm Calm -- 30.03 in1016.9 mb - 0.00 in0.0 mm 0.00 in0.0 mm
04:40 AM 57.1°F13.9°C 52.0°F11.1°C 83% Calm Calm -- 30.04 in1017.3 mb - 0.00 in0.0 mm 0.00 in0.0 mm
04:50 AM 56.7°F13.7°C 51.9°F11.1°C 84% Calm Calm -- 30.04 in1017.3 mb - 0.00 in0.0 mm 0.00 in0.0 mm
05:00 AM 56.3°F13.5°C 51.9°F11.1°C 85% Calm Calm -- 30.04 in1017.3 mb - 0.00 in0.0 mm 0.00 in0.0 mm
05:10 AM 56.0°F13.3°C 51.9°F11.1°C 86% Calm Calm -- 30.05 in1017.6 mb - 0.00 in0.0 mm 0.00 in0.0 mm
05:20 AM 55.7°F13.2°C 51.6°F10.9°C 86% Calm Calm -- 30.05 in1017.6 mb - 0.00 in0.0 mm 0.00 in0.0 mm
05:30 AM 55.5°F13.1°C 51.7°F10.9°C 87% Calm Calm -- 30.05 in1017.6 mb - 0.00 in0.0 mm 0.00 in0.0 mm
05:40 AM 55.3°F12.9°C 51.8°F11.0°C 88% Calm Calm -- 30.06 in1017.9 mb - 0.00 in0.0 mm 0.00 in0.0 mm
05:50 AM 55.1°F12.8°C 51.6°F10.9°C 88% Calm Calm -- 30.06 in1017.9 mb - 0.00 in0.0 mm 0.00 in0.0 mm
06:00 AM 54.9°F12.7°C 51.7°F10.9°C 89% Calm Calm -- 30.06 in1017.9 mb - 0.00 in0.0 mm 0.00 in0.0 mm
06:10 AM 54.8°F12.7°C 51.9°F11.1°C 90% Calm Calm -- 30.06 in1017.9 mb - 0.00 in0.0 mm 0.00 in0.0 mm
06:20 AM 55.0°F12.8°C 52.1°F11.2°C 90% Calm Calm -- 30.06 in1017.9 mb - 0.00 in0.0 mm 0.00 in0.0 mm
06:30 AM 55.1°F12.8°C 52.2°F11.2°C 90% Calm Calm -- 30.07 in1018.3 mb - 0.00 in0.0 mm 0.00 in0.0 mm
06:40 AM 55.8°F13.2°C 52.9°F11.6°C 90% Calm Calm -- 30.07 in1018.3 mb - 0.00 in0.0 mm 0.00 in0.0 mm
06:50 AM 57.0°F13.9°C 53.8°F12.1°C 89% Calm Calm -- 30.07 in1018.3 mb - 0.00 in0.0 mm 0.00 in0.0 mm
07:00 AM 58.3°F14.6°C 54.5°F12.5°C 87% Calm Calm -- 30.07 in1018.3 mb - 0.00 in0.0 mm 0.00 in0.0 mm
07:10 AM 59.8°F15.4°C 54.6°F12.6°C 83% Calm Calm -- 30.07 in1018.3 mb - 0.00 in0.0 mm 0.00 in0.0 mm
07:20 AM 60.6°F15.9°C 55.1°F12.8°C 82% Calm Calm -- 30.07 in1018.3 mb - 0.00 in0.0 mm 0.00 in0.0 mm
07:30 AM 61.6°F16.4°C 55.4°F13.0°C 80% Calm Calm -- 30.07 in1018.3 mb - 0.00 in0.0 mm 0.00 in0.0 mm
07:40 AM 62.4°F16.9°C 56.1°F13.4°C 80% Calm Calm -- 30.07 in1018.3 mb - 0.00 in0.0 mm 0.00 in0.0 mm
07:50 AM 63.4°F17.4°C 56.8°F13.8°C 79% Calm Calm -- 30.07 in1018.3 mb - 0.00 in0.0 mm 0.00 in0.0 mm
08:00 AM 64.3°F17.9°C 57.3°F14.1°C 78% Calm Calm 1.2 mph1.9 kmh 30.07 in1018.3 mb - 0.00 in0.0 mm 0.00 in0.0 mm
08:10 AM 65.2°F18.4°C 57.8°F14.3°C 77% 1.2 mph NNW1.9 kmh NNW 2.3 mph3.7 kmh 30.07 in1018.3 mb - 0.00 in0.0 mm 0.00 in0.0 mm
08:20 AM 66.4°F19.1°C 58.2°F14.6°C 75% 2.3 mph NNW3.7 kmh NNW 3.5 mph5.6 kmh 30.07 in1018.3 mb - 0.00 in0.0 mm 0.00 in0.0 mm
08:30 AM 67.5°F19.7°C 58.9°F14.9°C 74% 2.3 mph WNW3.7 kmh WNW 3.5 mph5.6 kmh 30.07 in1018.3 mb - 0.00 in0.0 mm 0.00 in0.0 mm
08:40 AM 68.7°F20.4°C 59.3°F15.2°C 72% 3.5 mph NW5.6 kmh NW 4.6 mph7.4 kmh 30.07 in1018.3 mb - 0.00 in0.0 mm 0.00 in0.0 mm
08:50 AM 69.1°F20.6°C 59.3°F15.2°C 71% 1.2 mph NNW1.9 kmh NNW 2.3 mph3.7 kmh 30.07 in1018.3 mb - 0.00 in0.0 mm 0.00 in0.0 mm
09:00 AM 69.7°F20.9°C 59.5°F15.3°C 70% 1.2 mph NE1.9 kmh NE 2.3 mph3.7 kmh 30.07 in1018.3 mb - 0.00 in0.0 mm 0.00 in0.0 mm
09:10 AM 70.3°F21.3°C 60.4°F15.8°C 71% 4.6 mph NE7.4 kmh NE 4.6 mph7.4 kmh 30.08 in1018.6 mb - 0.00 in0.0 mm 0.00 in0.0 mm
09:20 AM 70.6°F21.4°C 60.7°F15.9°C 71% 2.3 mph N3.7 kmh N 3.5 mph5.6 kmh 30.08 in1018.6 mb - 0.00 in0.0 mm 0.00 in0.0 mm
09:30 AM 70.9°F21.6°C 60.6°F15.9°C 70% 2.3 mph NW3.7 kmh NW 4.6 mph7.4 kmh 30.07 in1018.3 mb - 0.00 in0.0 mm 0.00 in0.0 mm
09:40 AM 71.4°F21.9°C 60.3°F15.7°C 68% 2.3 mph NNW3.7 kmh NNW 2.3 mph3.7 kmh 30.07 in1018.3 mb - 0.00 in0.0 mm 0.00 in0.0 mm
09:50 AM 72.0°F22.2°C 61.3°F16.3°C 69% 2.3 mph NW3.7 kmh NW 3.5 mph5.6 kmh 30.07 in1018.3 mb - 0.00 in0.0 mm 0.00 in0.0 mm
10:00 AM 72.0°F22.2°C 60.9°F16.1°C 68% 2.3 mph NW3.7 kmh NW 3.5 mph5.6 kmh 30.07 in1018.3 mb - 0.00 in0.0 mm 0.00 in0.0 mm
10:10 AM 72.3°F22.4°C 60.3°F15.7°C 66% 2.3 mph NE3.7 kmh NE 3.5 mph5.6 kmh 30.08 in1018.6 mb - 0.00 in0.0 mm 0.00 in0.0 mm
10:20 AM 72.3°F22.4°C 59.9°F15.5°C 65% 5.8 mph E9.3 kmh E 8.1 mph13.0 kmh 30.07 in1018.3 mb - 0.00 in0.0 mm 0.00 in0.0 mm
10:30 AM 72.8°F22.7°C 59.9°F15.5°C 64% 2.3 mph NNE3.7 kmh NNE 5.8 mph9.3 kmh 30.08 in1018.6 mb - 0.00 in0.0 mm 0.00 in0.0 mm
10:40 AM 73.8°F23.2°C 59.5°F15.3°C 61% 2.3 mph NW3.7 kmh NW 4.6 mph7.4 kmh 30.08 in1018.6 mb - 0.00 in0.0 mm 0.00 in0.0 mm
10:50 AM 74.3°F23.5°C 60.0°F15.6°C 61% 3.5 mph NE5.6 kmh NE 8.1 mph13.0 kmh 30.08 in1018.6 mb - 0.00 in0.0 mm 0.00 in0.0 mm
11:00 AM 73.7°F23.2°C 58.5°F14.7°C 59% 2.3 mph NW3.7 kmh NW 3.5 mph5.6 kmh 30.07 in1018.3 mb - 0.00 in0.0 mm 0.00 in0.0 mm
11:10 AM 74.2°F23.4°C 58.9°F14.9°C 59% 3.5 mph ENE5.6 kmh ENE 6.9 mph11.1 kmh 30.08 in1018.6 mb - 0.00 in0.0 mm 0.00 in0.0 mm
11:20 AM 74.1°F23.4°C 58.9°F14.9°C 59% 3.5 mph N5.6 kmh N 3.5 mph5.6 kmh 30.07 in1018.3 mb - 0.00 in0.0 mm 0.00 in0.0 mm
11:30 AM 74.9°F23.8°C 59.1°F15.1°C 58% 1.2 mph SW1.9 kmh SW 3.5 mph5.6 kmh 30.08 in1018.6 mb - 0.00 in0.0 mm 0.00 in0.0 mm
11:40 AM 74.4°F23.6°C 59.1°F15.1°C 59% 2.3 mph ENE3.7 kmh ENE 3.5 mph5.6 kmh 30.07 in1018.3 mb - 0.00 in0.0 mm 0.00 in0.0 mm
11:50 AM 74.3°F23.5°C 58.6°F14.8°C 58% 4.6 mph NE7.4 kmh NE 10.4 mph16.7 kmh 30.08 in1018.6 mb - 0.00 in0.0 mm 0.00 in0.0 mm
12:00 PM 74.6°F23.7°C 57.3°F14.1°C 55% 5.8 mph E9.3 kmh E 10.4 mph16.7 kmh 30.08 in1018.6 mb - 0.00 in0.0 mm 0.00 in0.0 mm
12:10 PM 74.6°F23.7°C 56.8°F13.8°C 54% 5.8 mph ENE9.3 kmh ENE 8.1 mph13.0 kmh 30.07 in1018.3 mb - 0.00 in0.0 mm 0.00 in0.0 mm
12:20 PM 74.7°F23.7°C 56.9°F13.8°C 54% 2.3 mph NNE3.7 kmh NNE 3.5 mph5.6 kmh 30.07 in1018.3 mb - 0.00 in0.0 mm 0.00 in0.0 mm
12:30 PM 75.4°F24.1°C 56.0°F13.3°C 51% 3.5 mph NE5.6 kmh NE 4.6 mph7.4 kmh 30.08 in1018.6 mb - 0.00 in0.0 mm 0.00 in0.0 mm
12:40 PM 75.7°F24.3°C 55.7°F13.2°C 50% 4.6 mph NE7.4 kmh NE 5.8 mph9.3 kmh 30.08 in1018.6 mb - 0.00 in0.0 mm 0.00 in0.0 mm
12:50 PM 76.4°F24.7°C 55.2°F12.9°C 48% 3.5 mph N5.6 kmh N 6.9 mph11.1 kmh 30.08 in1018.6 mb - 0.00 in0.0 mm 0.00 in0.0 mm
01:00 PM 77.3°F25.2°C 56.1°F13.4°C 48% 2.3 mph E3.7 kmh E 6.9 mph11.1 kmh 30.07 in1018.3 mb - 0.00 in0.0 mm 0.00 in0.0 mm
01:10 PM 76.6°F24.8°C 56.0°F13.3°C 49% 4.6 mph ENE7.4 kmh ENE 8.1 mph13.0 kmh 30.07 in1018.3 mb - 0.00 in0.0 mm 0.00 in0.0 mm
01:20 PM 76.4°F24.7°C 55.8°F13.2°C 49% 3.5 mph NW5.6 kmh NW 4.6 mph7.4 kmh 30.06 in1017.9 mb - 0.00 in0.0 mm 0.00 in0.0 mm
01:30 PM 77.0°F25.0°C 56.3°F13.5°C 49% 5.8 mph ENE9.3 kmh ENE 11.5 mph18.5 kmh 30.06 in1017.9 mb - 0.00 in0.0 mm 0.00 in0.0 mm
01:40 PM 76.7°F24.8°C 56.7°F13.7°C 50% 4.6 mph ENE7.4 kmh ENE 9.2 mph14.8 kmh 30.06 in1017.9 mb - 0.00 in0.0 mm 0.00 in0.0 mm
01:50 PM 76.6°F24.8°C 56.0°F13.3°C 49% 4.6 mph ENE7.4 kmh ENE 9.2 mph14.8 kmh 30.06 in1017.9 mb - 0.00 in0.0 mm 0.00 in0.0 mm
02:00 PM 76.6°F24.8°C 57.1°F13.9°C 51% 2.3 mph NNE3.7 kmh NNE 3.5 mph5.6 kmh 30.06 in1017.9 mb - 0.00 in0.0 mm 0.00 in0.0 mm
02:10 PM 77.5°F25.3°C 57.4°F14.1°C 50% 3.5 mph NE5.6 kmh NE 6.9 mph11.1 kmh 30.06 in1017.9 mb - 0.00 in0.0 mm 0.00 in0.0 mm
02:20 PM 78.1°F25.6°C 56.2°F13.4°C 47% 4.6 mph ENE7.4 kmh ENE 9.2 mph14.8 kmh 30.05 in1017.6 mb - 0.00 in0.0 mm 0.00 in0.0 mm
02:30 PM 77.7°F25.4°C 54.6°F12.6°C 45% 5.8 mph ENE9.3 kmh ENE 9.2 mph14.8 kmh 30.05 in1017.6 mb - 0.00 in0.0 mm 0.00 in0.0 mm
02:40 PM 78.6°F25.9°C 56.1°F13.4°C 46% 1.2 mph NNE1.9 kmh NNE 3.5 mph5.6 kmh 30.05 in1017.6 mb - 0.00 in0.0 mm 0.00 in0.0 mm
02:50 PM 79.2°F26.2°C 55.4°F13.0°C 44% 4.6 mph E7.4 kmh E 6.9 mph11.1 kmh 30.05 in1017.6 mb - 0.00 in0.0 mm 0.00 in0.0 mm
03:00 PM 78.8°F26.0°C 55.7°F13.2°C 45% 3.5 mph NE5.6 kmh NE 5.8 mph9.3 kmh 30.04 in1017.3 mb - 0.00 in0.0 mm 0.00 in0.0 mm
03:10 PM 78.3°F25.7°C 55.2°F12.9°C 45% 1.2 mph NE1.9 kmh NE 2.3 mph3.7 kmh 30.04 in1017.3 mb - 0.00 in0.0 mm 0.00 in0.0 mm
03:20 PM 79.5°F26.4°C 56.3°F13.5°C 45% 2.3 mph NE3.7 kmh NE 3.5 mph5.6 kmh 30.04 in1017.3 mb - 0.00 in0.0 mm 0.00 in0.0 mm
03:30 PM 79.9°F26.6°C 56.0°F13.3°C 44% 3.5 mph ENE5.6 kmh ENE 6.9 mph11.1 kmh 30.04 in1017.3 mb - 0.00 in0.0 mm 0.00 in0.0 mm
03:40 PM 80.0°F26.7°C 55.5°F13.1°C 43% 4.6 mph E7.4 kmh E 5.8 mph9.3 kmh 30.03 in1016.9 mb - 0.00 in0.0 mm 0.00 in0.0 mm
03:50 PM 80.1°F26.7°C 54.9°F12.7°C 42% 3.5 mph E5.6 kmh E 5.8 mph9.3 kmh 30.03 in1016.9 mb - 0.00 in0.0 mm 0.00 in0.0 mm
04:00 PM 80.0°F26.7°C 55.5°F13.1°C 43% 5.8 mph NE9.3 kmh NE 8.1 mph13.0 kmh 30.03 in1016.9 mb - 0.00 in0.0 mm 0.00 in0.0 mm
04:10 PM 79.7°F26.5°C 54.5°F12.5°C 42% 2.3 mph E3.7 kmh E 4.6 mph7.4 kmh 30.03 in1016.9 mb - 0.00 in0.0 mm 0.00 in0.0 mm
04:20 PM 80.0°F26.7°C 55.5°F13.1°C 43% 2.3 mph E3.7 kmh E 3.5 mph5.6 kmh 30.03 in1016.9 mb - 0.00 in0.0 mm 0.00 in0.0 mm
04:30 PM 79.9°F26.6°C 54.8°F12.7°C 42% 1.2 mph NNE1.9 kmh NNE 3.5 mph5.6 kmh 30.02 in1016.6 mb - 0.00 in0.0 mm 0.00 in0.0 mm
04:40 PM 80.7°F27.1°C 54.8°F12.7°C 41% 1.2 mph ENE1.9 kmh ENE 1.2 mph1.9 kmh 30.02 in1016.6 mb - 0.00 in0.0 mm 0.00 in0.0 mm
04:50 PM 82.0°F27.8°C 55.3°F12.9°C 40% 1.2 mph N1.9 kmh N 2.3 mph3.7 kmh 30.02 in1016.6 mb - 0.00 in0.0 mm 0.00 in0.0 mm
05:00 PM 81.5°F27.5°C 54.8°F12.7°C 40% 2.3 mph NNE3.7 kmh NNE 3.5 mph5.6 kmh 30.02 in1016.6 mb - 0.00 in0.0 mm 0.00 in0.0 mm
05:10 PM 81.1°F27.3°C 55.8°F13.2°C 42% 4.6 mph E7.4 kmh E 6.9 mph11.1 kmh 30.02 in1016.6 mb - 0.00 in0.0 mm 0.00 in0.0 mm
05:20 PM 81.0°F27.2°C 56.4°F13.6°C 43% 1.2 mph N1.9 kmh N 3.5 mph5.6 kmh 30.02 in1016.6 mb - 0.00 in0.0 mm 0.00 in0.0 mm
05:30 PM 81.5°F27.5°C 56.8°F13.8°C 43% 2.3 mph ENE3.7 kmh ENE 4.6 mph7.4 kmh 30.02 in1016.6 mb - 0.00 in0.0 mm 0.00 in0.0 mm
05:40 PM 81.9°F27.7°C 57.2°F14.0°C 43% 2.3 mph NW3.7 kmh NW 3.5 mph5.6 kmh 30.01 in1016.3 mb - 0.00 in0.0 mm 0.00 in0.0 mm
05:50 PM 81.5°F27.5°C 56.8°F13.8°C 43% 2.3 mph NNW3.7 kmh NNW 6.9 mph11.1 kmh 30.01 in1016.3 mb - 0.00 in0.0 mm 0.00 in0.0 mm
06:00 PM 81.1°F27.3°C 56.5°F13.6°C 43% 2.3 mph N3.7 kmh N 3.5 mph5.6 kmh 30.01 in1016.3 mb - 0.00 in0.0 mm 0.00 in0.0 mm
06:10 PM 81.0°F27.2°C 56.4°F13.6°C 43% 1.2 mph ENE1.9 kmh ENE 3.5 mph5.6 kmh 30.01 in1016.3 mb - 0.00 in0.0 mm 0.00 in0.0 mm
06:20 PM 81.6°F27.6°C 56.9°F13.8°C 43% 1.2 mph NE1.9 kmh NE 2.3 mph3.7 kmh 30.01 in1016.3 mb - 0.00 in0.0 mm 0.00 in0.0 mm
06:30 PM 81.7°F27.6°C 57.0°F13.9°C 43% 2.3 mph NNW3.7 kmh NNW 3.5 mph5.6 kmh 30.01 in1016.3 mb - 0.00 in0.0 mm 0.00 in0.0 mm
06:40 PM 81.0°F27.2°C 57.0°F13.9°C 44% 2.3 mph NE3.7 kmh NE 3.5 mph5.6 kmh 30.01 in1016.3 mb - 0.00 in0.0 mm 0.00 in0.0 mm
06:50 PM 81.3°F27.4°C 56.0°F13.3°C 42% 1.2 mph NE1.9 kmh NE 3.5 mph5.6 kmh 30.01 in1016.3 mb - 0.00 in0.0 mm 0.00 in0.0 mm
07:00 PM 81.9°F27.7°C 56.6°F13.7°C 42% 1.2 mph NNW1.9 kmh NNW 2.3 mph3.7 kmh 30.01 in1016.3 mb - 0.00 in0.0 mm 0.00 in0.0 mm
07:10 PM 81.8°F27.7°C 57.1°F13.9°C 43% Calm Calm -- 30.01 in1016.3 mb - 0.00 in0.0 mm 0.00 in0.0 mm
07:20 PM 80.8°F27.1°C 56.2°F13.4°C 43% Calm Calm -- 30.01 in1016.3 mb - 0.00 in0.0 mm 0.00 in0.0 mm
07:30 PM 81.0°F27.2°C 57.0°F13.9°C 44% Calm Calm 2.3 mph3.7 kmh 30.01 in1016.3 mb - 0.00 in0.0 mm 0.00 in0.0 mm
07:40 PM 80.9°F27.2°C 56.9°F13.8°C 44% 1.2 mph N1.9 kmh N 2.3 mph3.7 kmh 30.01 in1016.3 mb - 0.00 in0.0 mm 0.00 in0.0 mm
07:50 PM 80.9°F27.2°C 57.5°F14.2°C 45% Calm Calm 1.2 mph1.9 kmh 30.01 in1016.3 mb - 0.00 in0.0 mm 0.00 in0.0 mm
08:00 PM 80.6°F27.0°C 57.3°F14.1°C 45% Calm Calm -- 30.00 in1015.9 mb - 0.00 in0.0 mm 0.00 in0.0 mm
08:10 PM 80.0°F26.7°C 57.4°F14.1°C 46% Calm Calm -- 30.00 in1015.9 mb - 0.00 in0.0 mm 0.00 in0.0 mm
08:20 PM 79.2°F26.2°C 59.0°F15.0°C 50% 1.2 mph SSW1.9 kmh SSW 3.5 mph5.6 kmh 30.01 in1016.3 mb - 0.00 in0.0 mm 0.00 in0.0 mm
08:30 PM 77.6°F25.3°C 58.0°F14.4°C 51% Calm Calm 4.6 mph7.4 kmh 30.00 in1015.9 mb - 0.00 in0.0 mm 0.00 in0.0 mm
08:40 PM 76.9°F24.9°C 55.7°F13.2°C 48% 2.3 mph SSW3.7 kmh SSW 3.5 mph5.6 kmh 30.00 in1015.9 mb - 0.00 in0.0 mm 0.00 in0.0 mm
08:50 PM 76.1°F24.5°C 55.6°F13.1°C 49% 3.5 mph SSW5.6 kmh SSW 4.6 mph7.4 kmh 30.01 in1016.3 mb - 0.00 in0.0 mm 0.00 in0.0 mm
09:00 PM 75.5°F24.2°C 55.5°F13.1°C 50% 2.3 mph SW3.7 kmh SW 3.5 mph5.6 kmh 30.01 in1016.3 mb - 0.00 in0.0 mm 0.00 in0.0 mm
09:10 PM 74.8°F23.8°C 56.0°F13.3°C 52% 3.5 mph SW5.6 kmh SW 5.8 mph9.3 kmh 30.01 in1016.3 mb - 0.00 in0.0 mm 0.00 in0.0 mm
09:20 PM 74.2°F23.4°C 56.0°F13.3°C 53% 2.3 mph SSW3.7 kmh SSW 3.5 mph5.6 kmh 30.01 in1016.3 mb - 0.00 in0.0 mm 0.00 in0.0 mm
09:30 PM 73.7°F23.2°C 56.0°F13.3°C 54% 1.2 mph SSW1.9 kmh SSW 2.3 mph3.7 kmh 30.02 in1016.6 mb - 0.00 in0.0 mm 0.00 in0.0 mm
09:40 PM 73.2°F22.9°C 56.6°F13.7°C 56% 1.2 mph SSW1.9 kmh SSW 1.2 mph1.9 kmh 30.02 in1016.6 mb - 0.00 in0.0 mm 0.00 in0.0 mm
09:50 PM 72.8°F22.7°C 56.6°F13.7°C 57% 2.3 mph SSW3.7 kmh SSW 2.3 mph3.7 kmh 30.02 in1016.6 mb - 0.00 in0.0 mm 0.00 in0.0 mm
10:00 PM 72.3°F22.4°C 56.7°F13.7°C 58% 1.2 mph SSW1.9 kmh SSW 3.5 mph5.6 kmh 30.02 in1016.6 mb - 0.00 in0.0 mm 0.00 in0.0 mm
10:10 PM 71.8°F22.1°C 57.2°F14.0°C 60% 1.2 mph SSW1.9 kmh SSW 3.5 mph5.6 kmh 30.02 in1016.6 mb - 0.00 in0.0 mm 0.00 in0.0 mm
10:20 PM 71.4°F21.9°C 57.2°F14.0°C 61% 1.2 mph SSW1.9 kmh SSW 2.3 mph3.7 kmh 30.02 in1016.6 mb - 0.00 in0.0 mm 0.00 in0.0 mm
10:30 PM 71.0°F21.7°C 57.3°F14.1°C 62% 2.3 mph SSW3.7 kmh SSW 3.5 mph5.6 kmh 30.02 in1016.6 mb - 0.00 in0.0 mm 0.00 in0.0 mm
10:40 PM 70.8°F21.6°C 57.6°F14.2°C 63% 2.3 mph WSW3.7 kmh WSW 3.5 mph5.6 kmh 30.02 in1016.6 mb - 0.00 in0.0 mm 0.00 in0.0 mm
10:50 PM 70.3°F21.3°C 58.0°F14.4°C 65% 2.3 mph SW3.7 kmh SW 3.5 mph5.6 kmh 30.02 in1016.6 mb - 0.00 in0.0 mm 0.00 in0.0 mm
11:00 PM 69.9°F21.1°C 58.4°F14.7°C 67% Calm Calm -- 30.02 in1016.6 mb - 0.00 in0.0 mm 0.00 in0.0 mm
11:10 PM 69.4°F20.8°C 58.4°F14.7°C 68% 2.3 mph SSW3.7 kmh SSW 4.6 mph7.4 kmh 30.02 in1016.6 mb - 0.00 in0.0 mm 0.00 in0.0 mm
11:20 PM 68.9°F20.5°C 58.3°F14.6°C 69% 1.2 mph SW1.9 kmh SW 1.2 mph1.9 kmh 30.01 in1016.3 mb - 0.00 in0.0 mm 0.00 in0.0 mm
11:30 PM 68.4°F20.2°C 58.6°F14.8°C 71% 1.2 mph SW1.9 kmh SW 2.3 mph3.7 kmh 30.01 in1016.3 mb - 0.00 in0.0 mm 0.00 in0.0 mm
11:40 PM 67.9°F19.9°C 58.5°F14.7°C 72% 1.2 mph SW1.9 kmh SW 2.3 mph3.7 kmh 30.02 in1016.6 mb - 0.00 in0.0 mm 0.00 in0.0 mm
11:50 PM 67.5°F19.7°C 58.5°F14.7°C 73% 1.2 mph SSW1.9 kmh SSW 1.2 mph1.9 kmh 30.02 in1016.6 mb - 0.00 in0.0 mm 0.00 in0.0 mm